createdAt,value
2019-06-01T00:01:28.000Z,101050
2019-06-01T00:02:43.000Z,101052
2019-06-01T00:04:13.000Z,101049
2019-06-01T00:05:43.000Z,101049
2019-06-01T00:07:28.000Z,101046
2019-06-01T00:09:28.000Z,101048
2019-06-01T00:10:28.000Z,101055
2019-06-01T00:11:43.000Z,101054
2019-06-01T00:13:13.000Z,101047
2019-06-01T00:14:43.000Z,101053
2019-06-01T00:16:43.000Z,101052
2019-06-01T00:18:43.000Z,101051
2019-06-01T00:19:43.000Z,101053
2019-06-01T00:20:43.000Z,101049
2019-06-01T00:22:28.000Z,101048
2019-06-01T00:23:43.000Z,101047
2019-06-01T00:25:43.000Z,101046
2019-06-01T00:27:43.000Z,101040
2019-06-01T00:29:43.000Z,101040
2019-06-01T00:31:43.000Z,101042
2019-06-01T00:33:43.000Z,101044
2019-06-01T00:35:43.000Z,101038
2019-06-01T00:37:43.000Z,101042
2019-06-01T00:39:28.000Z,101041
2019-06-01T00:40:43.000Z,101040
2019-06-01T00:42:43.000Z,101038
2019-06-01T00:43:43.000Z,101041
2019-06-01T00:45:28.000Z,101041
2019-06-01T00:46:28.000Z,101037
2019-06-01T00:47:43.000Z,101039
2019-06-01T00:49:43.000Z,101036
2019-06-01T00:51:43.000Z,101044
2019-06-01T00:53:43.000Z,101040
2019-06-01T00:55:28.000Z,101043
2019-06-01T00:56:28.000Z,101040
2019-06-01T00:58:43.000Z,101037
2019-06-01T01:00:28.000Z,101036
2019-06-01T01:02:43.000Z,101039
2019-06-01T01:04:13.000Z,101034
2019-06-01T01:05:13.000Z,101039
2019-06-01T01:07:43.000Z,101038
2019-06-01T01:09:43.000Z,101040
2019-06-01T01:11:28.000Z,101039
2019-06-01T01:13:14.000Z,101045
2019-06-01T01:15:14.000Z,101042
2019-06-01T01:16:29.000Z,101045
2019-06-01T01:18:14.000Z,101039
2019-06-01T01:19:44.000Z,101042
2019-06-01T01:21:44.000Z,101043
2019-06-01T01:23:29.000Z,101042
2019-06-01T01:24:44.000Z,101047
2019-06-01T01:26:13.000Z,101049
2019-06-01T01:27:28.000Z,101051
2019-06-01T01:28:29.000Z,101050
2019-06-01T01:30:13.000Z,101052
2019-06-01T01:31:14.000Z,101052
2019-06-01T01:32:44.000Z,101051
2019-06-01T01:34:13.000Z,101045
2019-06-01T01:35:29.000Z,101044
2019-06-01T01:37:14.000Z,101039
2019-06-01T01:39:44.000Z,101037
2019-06-01T01:40:44.000Z,101037
2019-06-01T01:42:14.000Z,101033
2019-06-01T01:43:44.000Z,101034
2019-06-01T01:45:44.000Z,101039
2019-06-01T01:47:14.000Z,101030
2019-06-01T01:48:29.000Z,101035
2019-06-01T01:50:44.000Z,101034
2019-06-01T01:52:14.000Z,101035
2019-06-01T01:54:14.000Z,101036
2019-06-01T01:55:44.000Z,101029
2019-06-01T01:56:44.000Z,101023
2019-06-01T01:58:29.000Z,101026
2019-06-01T02:00:29.000Z,101024
2019-06-01T02:02:44.000Z,101022
2019-06-01T02:04:44.000Z,101019
2019-06-01T02:06:29.000Z,101017
2019-06-01T02:08:13.000Z,101019
2019-06-01T02:09:14.000Z,101023
2019-06-01T02:10:14.000Z,101023
2019-06-01T02:11:44.000Z,101023
2019-06-01T02:13:29.000Z,101019
2019-06-01T02:15:29.000Z,101022
2019-06-01T02:17:28.000Z,101021
2019-06-01T02:18:43.000Z,101023
2019-06-01T02:20:28.000Z,101023
2019-06-01T02:21:43.000Z,101024
2019-06-01T02:23:43.000Z,101025
2019-06-01T02:24:43.000Z,101022
2019-06-01T02:26:13.000Z,101022
2019-06-01T02:27:43.000Z,101019
2019-06-01T02:29:28.000Z,101018
2019-06-01T02:31:28.000Z,101017
2019-06-01T02:33:28.000Z,101014
2019-06-01T02:34:28.000Z,101018
2019-06-01T02:36:28.000Z,101013
2019-06-01T02:37:28.000Z,101018
2019-06-01T02:39:28.000Z,101012
2019-06-01T02:40:43.000Z,101014
2019-06-01T02:42:43.000Z,101016
2019-06-01T02:44:28.000Z,101020
2019-06-01T02:45:43.000Z,101016
2019-06-01T02:46:43.000Z,101018
2019-06-01T02:48:43.000Z,101019
2019-06-01T02:49:43.000Z,101022
2019-06-01T02:50:43.000Z,101013
2019-06-01T02:52:43.000Z,101018
2019-06-01T02:54:43.000Z,101015
2019-06-01T02:55:43.000Z,101016
2019-06-01T02:57:43.000Z,101010
2019-06-01T02:58:43.000Z,101015
2019-06-01T03:00:43.000Z,101011
2019-06-01T03:02:13.000Z,101011
2019-06-01T03:03:43.000Z,101017
2019-06-01T03:04:43.000Z,101021
2019-06-01T03:05:43.000Z,101019
2019-06-01T03:07:43.000Z,101021
2019-06-01T03:08:43.000Z,101018
2019-06-01T03:09:43.000Z,101019
2019-06-01T03:11:43.000Z,101020
2019-06-01T03:13:43.000Z,101019
2019-06-01T03:14:43.000Z,101015
2019-06-01T03:16:43.000Z,101014
2019-06-01T03:18:13.000Z,101014
2019-06-01T03:19:43.000Z,101017
2019-06-01T03:21:28.000Z,101014
2019-06-01T03:22:43.000Z,101018
2019-06-01T03:24:43.000Z,101015
2019-06-01T03:26:43.000Z,101020
2019-06-01T03:28:43.000Z,101023
2019-06-01T03:29:43.000Z,101020
2019-06-01T03:31:43.000Z,101023
2019-06-01T03:33:29.000Z,101024
2019-06-01T03:35:43.000Z,101024
2019-06-01T03:36:43.000Z,101029
2019-06-01T03:38:28.000Z,101020
2019-06-01T03:39:43.000Z,101026
2019-06-01T03:41:43.000Z,101019
2019-06-01T03:42:43.000Z,101022
2019-06-01T03:43:43.000Z,101022
2019-06-01T03:45:43.000Z,101020
2019-06-01T03:47:43.000Z,101023
2019-06-01T03:48:43.000Z,101019
2019-06-01T03:50:28.000Z,101023
2019-06-01T03:51:43.000Z,101020
2019-06-01T03:53:28.000Z,101016
2019-06-01T03:54:43.000Z,101025
2019-06-01T03:56:43.000Z,101014
2019-06-01T03:57:43.000Z,101016
2019-06-01T03:59:43.000Z,101014
2019-06-01T04:01:28.000Z,101012
2019-06-01T04:02:28.000Z,101009
2019-06-01T04:04:43.000Z,101013
2019-06-01T04:06:28.000Z,101010
2019-06-01T04:07:43.000Z,101014
2019-06-01T04:09:43.000Z,101012
2019-06-01T04:11:28.000Z,101019
2019-06-01T04:12:28.000Z,101015
2019-06-01T04:13:43.000Z,101014
2019-06-01T04:15:13.000Z,101017
2019-06-01T04:16:43.000Z,101015
2019-06-01T04:18:13.000Z,101019
2019-06-01T04:19:28.000Z,101018
2019-06-01T04:20:43.000Z,101019
2019-06-01T04:21:43.000Z,101024
2019-06-01T04:23:43.000Z,101023
2019-06-01T04:25:43.000Z,101025
2019-06-01T04:27:43.000Z,101019
2019-06-01T04:28:43.000Z,101017
2019-06-01T04:30:43.000Z,101019
2019-06-01T04:32:43.000Z,101024
2019-06-01T04:34:28.000Z,101020
2019-06-01T04:35:43.000Z,101020
2019-06-01T04:37:43.000Z,101027
2019-06-01T04:39:43.000Z,101028
2019-06-01T04:40:43.000Z,101031
2019-06-01T04:42:28.000Z,101028
2019-06-01T04:44:29.000Z,101026
2019-06-01T04:46:29.000Z,101035
2019-06-01T04:48:13.000Z,101032
2019-06-01T04:49:29.000Z,101030
2019-06-01T04:51:29.000Z,101035
2019-06-01T04:53:29.000Z,101030
2019-06-01T04:55:29.000Z,101029
2019-06-01T04:57:29.000Z,101030
2019-06-01T04:59:15.000Z,101025
2019-06-01T05:01:29.000Z,101031
2019-06-01T05:03:29.000Z,101029
2019-06-01T05:05:13.000Z,101027
2019-06-01T05:07:43.000Z,101028
2019-06-01T05:09:43.000Z,101029
2019-06-01T05:11:43.000Z,101024
2019-06-01T05:12:43.000Z,101019
2019-06-01T05:14:43.000Z,101022
2019-06-01T05:16:14.000Z,101020
2019-06-01T05:17:16.000Z,101020
2019-06-01T05:19:13.000Z,101020
2019-06-01T05:20:13.000Z,101014
2019-06-01T05:21:14.000Z,101018
2019-06-01T05:23:29.000Z,101018
2019-06-01T05:25:30.000Z,101012
2019-06-01T05:27:29.000Z,101011
2019-06-01T05:29:43.000Z,101012
2019-06-01T05:30:43.000Z,101012
2019-06-01T05:32:29.000Z,101014
2019-06-01T05:34:43.000Z,101015
2019-06-01T05:36:13.000Z,101014
2019-06-01T05:37:13.000Z,101017
2019-06-01T05:38:13.000Z,101010
2019-06-01T05:40:12.000Z,101015
2019-06-01T05:41:13.000Z,101014
2019-06-01T05:42:29.000Z,101014
2019-06-01T05:44:29.000Z,101013
2019-06-01T05:46:13.000Z,101010
2019-06-01T05:47:13.000Z,101007
2019-06-01T05:49:12.000Z,101004
2019-06-01T05:50:13.000Z,101001
2019-06-01T05:51:13.000Z,101005
2019-06-01T05:52:28.000Z,101003
2019-06-01T05:54:29.000Z,101001
2019-06-01T05:56:29.000Z,101006
2019-06-01T05:58:29.000Z,101006
2019-06-01T05:59:43.000Z,101006
2019-06-01T06:01:14.000Z,101008
2019-06-01T06:02:43.000Z,101011
2019-06-01T06:04:43.000Z,101006
2019-06-01T06:06:43.000Z,101005
2019-06-01T06:08:13.000Z,101004
2019-06-01T06:09:29.000Z,101006
2019-06-01T06:10:43.000Z,101003
2019-06-01T06:12:29.000Z,101007
2019-06-01T06:14:43.000Z,101011
2019-06-01T06:15:43.000Z,101010
2019-06-01T06:17:13.000Z,101003
2019-06-01T06:18:43.000Z,101001
2019-06-01T06:20:43.000Z,101002
2019-06-01T06:22:28.000Z,101008
2019-06-01T06:24:13.000Z,101003
2019-06-01T06:26:15.000Z,101011
2019-06-01T06:28:13.000Z,101014
2019-06-01T06:29:29.000Z,101017
2019-06-01T06:31:29.000Z,101016
2019-06-01T06:33:29.000Z,101021
2019-06-01T06:35:43.000Z,101022
2019-06-01T06:36:43.000Z,101023
2019-06-01T06:37:43.000Z,101020
2019-06-01T06:38:43.000Z,101019
2019-06-01T06:40:43.000Z,101021
2019-06-01T06:42:28.000Z,101023
2019-06-01T06:44:13.000Z,101021
2019-06-01T06:45:13.000Z,101024
2019-06-01T06:46:28.000Z,101022
2019-06-01T06:48:29.000Z,101024
2019-06-01T06:50:15.000Z,101032
2019-06-01T06:52:43.000Z,101032
2019-06-01T06:54:14.000Z,101025
2019-06-01T06:55:43.000Z,101031
2019-06-01T06:56:43.000Z,101035
2019-06-01T06:58:43.000Z,101028
2019-06-01T07:00:43.000Z,101032
2019-06-01T07:01:43.000Z,101036
2019-06-01T07:03:28.000Z,101030
2019-06-01T07:04:43.000Z,101028
2019-06-01T07:06:27.000Z,101034
2019-06-01T07:07:43.000Z,101026
2019-06-01T07:09:43.000Z,101027
2019-06-01T07:11:28.000Z,101025
2019-06-01T07:13:43.000Z,101029
2019-06-01T07:15:43.000Z,101024
2019-06-01T07:16:43.000Z,101027
2019-06-01T07:18:43.000Z,101035
2019-06-01T07:19:43.000Z,101028
2019-06-01T07:21:43.000Z,101025
2019-06-01T07:23:43.000Z,101029
2019-06-01T07:24:43.000Z,101024
2019-06-01T07:26:43.000Z,101025
2019-06-01T07:28:43.000Z,101026
2019-06-01T07:30:43.000Z,101030
2019-06-01T07:32:28.000Z,101025
2019-06-01T07:34:13.000Z,101028
2019-06-01T07:35:28.000Z,101026
2019-06-01T07:36:43.000Z,101029
2019-06-01T07:37:43.000Z,101036
2019-06-01T07:39:28.000Z,101030
2019-06-01T07:41:28.000Z,101027
2019-06-01T07:42:28.000Z,101027
2019-06-01T07:43:43.000Z,101023
2019-06-01T07:45:13.000Z,101020
2019-06-01T07:46:43.000Z,101020
2019-06-01T07:48:13.000Z,101020
2019-06-01T07:49:43.000Z,101027
2019-06-01T07:51:28.000Z,101022
2019-06-01T07:53:28.000Z,101029
2019-06-01T07:54:43.000Z,101021
2019-06-01T07:56:28.000Z,101023
2019-06-01T07:57:28.000Z,101029
2019-06-01T07:59:28.000Z,101021
2019-06-01T08:00:43.000Z,101023
2019-06-01T08:02:28.000Z,101023
2019-06-01T08:03:28.000Z,101021
2019-06-01T08:04:28.000Z,101023
2019-06-01T08:06:28.000Z,101022
2019-06-01T08:08:28.000Z,101027
2019-06-01T08:10:28.000Z,101029
2019-06-01T08:12:28.000Z,101020
2019-06-01T08:14:43.000Z,101026
2019-06-01T08:16:28.000Z,101033
2019-06-01T08:17:28.000Z,101024
2019-06-01T08:18:28.000Z,101020
2019-06-01T08:20:28.000Z,101017
2019-06-01T08:22:28.000Z,101025
2019-06-01T08:24:14.000Z,101035
2019-06-01T08:25:28.000Z,101030
2019-06-01T08:26:28.000Z,101027
2019-06-01T08:28:28.000Z,101027
2019-06-01T08:30:43.000Z,101020
2019-06-01T08:32:28.000Z,101023
2019-06-01T08:34:43.000Z,101018
2019-06-01T08:35:43.000Z,101023
2019-06-01T08:37:28.000Z,101017
2019-06-01T08:38:28.000Z,101011
2019-06-01T08:40:28.000Z,101020
2019-06-01T08:42:28.000Z,101019
2019-06-01T08:44:28.000Z,101010
2019-06-01T08:46:28.000Z,101024
2019-06-01T08:48:28.000Z,101016
2019-06-01T08:50:28.000Z,101018
2019-06-01T08:51:28.000Z,101021
2019-06-01T08:52:28.000Z,101020
2019-06-01T08:53:28.000Z,101014
2019-06-01T08:55:28.000Z,101009
2019-06-01T08:56:28.000Z,101012
2019-06-01T08:58:28.000Z,101009
2019-06-01T09:00:28.000Z,101011
2019-06-01T09:02:28.000Z,101012
2019-06-01T09:03:28.000Z,100999
2019-06-01T09:04:43.000Z,101010
2019-06-01T09:06:43.000Z,101008
2019-06-01T09:07:43.000Z,101006
2019-06-01T09:09:43.000Z,101006
2019-06-01T09:11:13.000Z,101009
2019-06-01T09:12:28.000Z,101003
2019-06-01T09:13:43.000Z,101004
2019-06-01T09:15:28.000Z,101004
2019-06-01T09:17:13.000Z,101003
2019-06-01T09:18:28.000Z,101004
2019-06-01T09:19:28.000Z,101005
2019-06-01T09:21:28.000Z,101007
2019-06-01T09:23:28.000Z,101005
2019-06-01T09:25:28.000Z,101004
2019-06-01T09:27:28.000Z,100999
2019-06-01T09:29:28.000Z,101007
2019-06-01T09:31:28.000Z,101013
2019-06-01T09:33:28.000Z,101005
2019-06-01T09:35:28.000Z,101002
2019-06-01T09:36:28.000Z,101005
2019-06-01T09:37:28.000Z,101000
2019-06-01T09:39:43.000Z,100998
2019-06-01T09:41:13.000Z,100998
2019-06-01T09:42:28.000Z,100994
2019-06-01T09:44:28.000Z,100994
2019-06-01T09:45:28.000Z,100994
2019-06-01T09:47:43.000Z,100994
2019-06-01T09:49:28.000Z,100997
2019-06-01T09:50:28.000Z,100994
2019-06-01T09:51:28.000Z,100991
2019-06-01T09:52:28.000Z,100988
2019-06-01T09:53:28.000Z,100989
2019-06-01T09:55:28.000Z,100995
2019-06-01T09:57:28.000Z,100988
2019-06-01T09:59:28.000Z,100984
2019-06-01T10:01:28.000Z,100987
2019-06-01T10:03:28.000Z,100985
2019-06-01T10:05:28.000Z,100988
2019-06-01T10:07:28.000Z,100992
2019-06-01T10:08:28.000Z,100984
2019-06-01T10:09:28.000Z,100988
2019-06-01T10:11:28.000Z,100983
2019-06-01T10:12:28.000Z,100985
2019-06-01T10:13:28.000Z,100994
2019-06-01T10:15:28.000Z,100981
2019-06-01T10:17:28.000Z,100986
2019-06-01T10:18:28.000Z,100987
2019-06-01T10:19:28.000Z,100982
2019-06-01T10:21:28.000Z,100985
2019-06-01T10:23:28.000Z,100984
2019-06-01T10:25:28.000Z,100984
2019-06-01T10:26:43.000Z,100982
2019-06-01T10:28:28.000Z,100981
2019-06-01T10:29:28.000Z,100978
2019-06-01T10:31:28.000Z,100970
2019-06-01T10:33:28.000Z,100975
2019-06-01T10:35:28.000Z,100971
2019-06-01T10:37:43.000Z,100972
2019-06-01T10:38:43.000Z,100964
2019-06-01T10:40:43.000Z,100974
2019-06-01T10:42:28.000Z,100958
2019-06-01T10:43:43.000Z,100962
2019-06-01T10:44:43.000Z,100964
2019-06-01T10:46:43.000Z,100962
2019-06-01T10:47:43.000Z,100959
2019-06-01T10:49:43.000Z,100958
2019-06-01T10:51:43.000Z,100955
2019-06-01T10:52:43.000Z,100953
2019-06-01T10:54:43.000Z,100957
2019-06-01T10:56:43.000Z,100955
2019-06-01T10:57:43.000Z,100951
2019-06-01T10:59:43.000Z,100950
2019-06-01T11:01:28.000Z,100943
2019-06-01T11:03:43.000Z,100946
2019-06-01T11:04:43.000Z,100950
2019-06-01T11:06:28.000Z,100950
2019-06-01T11:08:43.000Z,100955
2019-06-01T11:10:28.000Z,100950
2019-06-01T11:11:43.000Z,100951
2019-06-01T11:13:43.000Z,100961
2019-06-01T11:15:43.000Z,100944
2019-06-01T11:17:13.000Z,100948
2019-06-01T11:18:43.000Z,100941
2019-06-01T11:20:43.000Z,100936
2019-06-01T11:21:43.000Z,100938
2019-06-01T11:23:43.000Z,100944
2019-06-01T11:25:43.000Z,100936
2019-06-01T11:27:43.000Z,100934
2019-06-01T11:29:43.000Z,100933
2019-06-01T11:31:43.000Z,100932
2019-06-01T11:33:43.000Z,100926
2019-06-01T11:34:43.000Z,100933
2019-06-01T11:36:43.000Z,100936
2019-06-01T11:38:43.000Z,100935
2019-06-01T11:40:43.000Z,100932
2019-06-01T11:42:43.000Z,100925
2019-06-01T11:44:43.000Z,100926
2019-06-01T11:46:43.000Z,100932
2019-06-01T11:48:43.000Z,100919
2019-06-01T11:50:43.000Z,100923
2019-06-01T11:52:43.000Z,100919
2019-06-01T11:53:43.000Z,100917
2019-06-01T11:55:43.000Z,100918
2019-06-01T11:57:43.000Z,100919
2019-06-01T11:59:43.000Z,100912
2019-06-01T12:00:43.000Z,100910
2019-06-01T12:02:43.000Z,100913
2019-06-01T12:03:43.000Z,100923
2019-06-01T12:05:43.000Z,100916
2019-06-01T12:07:13.000Z,100902
2019-06-01T12:08:28.000Z,100902
2019-06-01T12:10:43.000Z,100903
2019-06-01T12:12:43.000Z,100909
2019-06-01T12:14:43.000Z,100901
2019-06-01T12:16:43.000Z,100899
2019-06-01T12:18:43.000Z,100890
2019-06-01T12:20:43.000Z,100888
2019-06-01T12:22:43.000Z,100891
2019-06-01T12:24:43.000Z,100887
2019-06-01T12:26:43.000Z,100881
2019-06-01T12:28:43.000Z,100891
2019-06-01T12:30:43.000Z,100890
2019-06-01T12:32:28.000Z,100887
2019-06-01T12:33:43.000Z,100882
2019-06-01T12:35:43.000Z,100882
2019-06-01T12:36:43.000Z,100882
2019-06-01T12:38:43.000Z,100869
2019-06-01T12:39:43.000Z,100877
2019-06-01T12:41:43.000Z,100870
2019-06-01T12:42:43.000Z,100866
2019-06-01T12:44:43.000Z,100875
2019-06-01T12:46:43.000Z,100876
2019-06-01T12:48:43.000Z,100869
2019-06-01T12:49:43.000Z,100869
2019-06-01T12:50:43.000Z,100868
2019-06-01T12:52:43.000Z,100864
2019-06-01T12:54:43.000Z,100860
2019-06-01T12:56:43.000Z,100867
2019-06-01T12:58:43.000Z,100866
2019-06-01T12:59:43.000Z,100858
2019-06-01T13:01:43.000Z,100855
2019-06-01T13:03:28.000Z,100857
2019-06-01T13:04:44.000Z,100849
2019-06-01T13:06:28.000Z,100846
2019-06-01T13:07:44.000Z,100848
2019-06-01T13:09:44.000Z,100852
2019-06-01T13:11:44.000Z,100844
2019-06-01T13:13:44.000Z,100844
2019-06-01T13:15:43.000Z,100840
2019-06-01T13:17:43.000Z,100843
2019-06-01T13:19:29.000Z,100832
2019-06-01T13:21:43.000Z,100842
2019-06-01T13:23:43.000Z,100841
2019-06-01T13:24:43.000Z,100838
2019-06-01T13:26:43.000Z,100832
2019-06-01T13:28:29.000Z,100829
2019-06-01T13:30:43.000Z,100832
2019-06-01T13:32:43.000Z,100834
2019-06-01T13:34:44.000Z,100834
2019-06-01T13:36:43.000Z,100826
2019-06-01T13:38:43.000Z,100826
2019-06-01T13:40:43.000Z,100825
2019-06-01T13:41:49.000Z,100833
2019-06-01T13:43:49.000Z,100816
2019-06-01T13:44:49.000Z,100817
2019-06-01T13:46:49.000Z,100818
2019-06-01T13:48:49.000Z,100817
2019-06-01T13:50:49.000Z,100814
2019-06-01T13:52:49.000Z,100811
2019-06-01T13:54:34.000Z,100816
2019-06-01T13:55:49.000Z,100810
2019-06-01T13:57:49.000Z,100801
2019-06-01T13:59:49.000Z,100801
2019-06-01T14:01:49.000Z,100804
2019-06-01T14:02:49.000Z,100806
2019-06-01T14:04:49.000Z,100806
2019-06-01T14:05:49.000Z,100797
2019-06-01T14:07:49.000Z,100797
2019-06-01T14:09:19.000Z,100797
2019-06-01T14:10:49.000Z,100794
2019-06-01T14:12:49.000Z,100797
2019-06-01T14:14:49.000Z,100791
2019-06-01T14:16:49.000Z,100797
2019-06-01T14:18:49.000Z,100793
2019-06-01T14:20:49.000Z,100794
2019-06-01T14:21:49.000Z,100794
2019-06-01T14:23:49.000Z,100787
2019-06-01T14:25:49.000Z,100785
2019-06-01T14:27:49.000Z,100784
2019-06-01T14:29:49.000Z,100786
2019-06-01T14:31:49.000Z,100780
2019-06-01T14:32:49.000Z,100783
2019-06-01T14:33:49.000Z,100778
2019-06-01T14:35:34.000Z,100777
2019-06-01T14:37:49.000Z,100777
2019-06-01T14:39:49.000Z,100778
2019-06-01T14:41:49.000Z,100779
2019-06-01T14:43:49.000Z,100775
2019-06-01T14:45:34.000Z,100776
2019-06-01T14:46:49.000Z,100771
2019-06-01T14:48:49.000Z,100774
2019-06-01T14:49:49.000Z,100770
2019-06-01T14:51:49.000Z,100769
2019-06-01T14:53:49.000Z,100770
2019-06-01T14:55:34.000Z,100768
2019-06-01T14:56:49.000Z,100767
2019-06-01T14:58:49.000Z,100765
2019-06-01T15:00:49.000Z,100764
2019-06-01T15:02:49.000Z,100767
2019-06-01T15:03:49.000Z,100768
2019-06-01T15:05:49.000Z,100762
2019-06-01T15:07:34.000Z,100768
2019-06-01T15:08:49.000Z,100766
2019-06-01T15:10:49.000Z,100757
2019-06-01T15:12:49.000Z,100757
2019-06-01T15:14:49.000Z,100764
2019-06-01T15:16:49.000Z,100764
2019-06-01T15:18:49.000Z,100756
2019-06-01T15:19:49.000Z,100756
2019-06-01T15:20:49.000Z,100759
2019-06-01T15:22:34.000Z,100752
2019-06-01T15:23:49.000Z,100753
2019-06-01T15:24:49.000Z,100745
2019-06-01T15:26:49.000Z,100749
2019-06-01T15:28:49.000Z,100750
2019-06-01T15:30:49.000Z,100748
2019-06-01T15:32:34.000Z,100746
2019-06-01T15:33:49.000Z,100744
2019-06-01T15:35:49.000Z,100737
2019-06-01T15:37:49.000Z,100745
2019-06-01T15:39:19.000Z,100741
2019-06-01T15:40:49.000Z,100733
2019-06-01T15:42:49.000Z,100737
2019-06-01T15:44:49.000Z,100736
2019-06-01T15:46:49.000Z,100729
2019-06-01T15:48:34.000Z,100726
2019-06-01T15:50:49.000Z,100726
2019-06-01T15:52:34.000Z,100729
2019-06-01T15:53:49.000Z,100731
2019-06-01T15:54:49.000Z,100728
2019-06-01T15:56:19.000Z,100726
2019-06-01T15:57:49.000Z,100717
2019-06-01T15:59:34.000Z,100715
2019-06-01T16:00:49.000Z,100716
2019-06-01T16:01:49.000Z,100710
2019-06-01T16:03:34.000Z,100712
2019-06-01T16:04:49.000Z,100708
2019-06-01T16:05:49.000Z,100711
2019-06-01T16:07:49.000Z,100710
2019-06-01T16:09:34.000Z,100706
2019-06-01T16:11:34.000Z,100705
2019-06-01T16:12:49.000Z,100709
2019-06-01T16:14:34.000Z,100704
2019-06-01T16:15:49.000Z,100703
2019-06-01T16:17:34.000Z,100704
2019-06-01T16:18:49.000Z,100702
2019-06-01T16:20:49.000Z,100707
2019-06-01T16:22:49.000Z,100707
2019-06-01T16:24:49.000Z,100703
2019-06-01T16:26:49.000Z,100701
2019-06-01T16:28:34.000Z,100698
2019-06-01T16:29:49.000Z,100700
2019-06-01T16:31:49.000Z,100705
2019-06-01T16:33:34.000Z,100702
2019-06-01T16:34:34.000Z,100704
2019-06-01T16:35:49.000Z,100705
2019-06-01T16:37:49.000Z,100699
2019-06-01T16:38:49.000Z,100700
2019-06-01T16:40:49.000Z,100696
2019-06-01T16:41:49.000Z,100693
2019-06-01T16:42:49.000Z,100695
2019-06-01T16:44:19.000Z,100693
2019-06-01T16:45:49.000Z,100701
2019-06-01T16:46:49.000Z,100697
2019-06-01T16:47:49.000Z,100691
2019-06-01T16:49:49.000Z,100692
2019-06-01T16:51:49.000Z,100691
2019-06-01T16:53:34.000Z,100697
2019-06-01T16:54:49.000Z,100692
2019-06-01T16:55:49.000Z,100684
2019-06-01T16:56:49.000Z,100689
2019-06-01T16:58:49.000Z,100682
2019-06-01T17:00:49.000Z,100683
2019-06-01T17:02:49.000Z,100684
2019-06-01T17:04:34.000Z,100679
2019-06-01T17:05:34.000Z,100685
2019-06-01T17:06:49.000Z,100681
2019-06-01T17:08:49.000Z,100679
2019-06-01T17:09:49.000Z,100683
2019-06-01T17:11:49.000Z,100686
2019-06-01T17:12:49.000Z,100684
2019-06-01T17:14:34.000Z,100681
2019-06-01T17:15:49.000Z,100683
2019-06-01T17:17:49.000Z,100680
2019-06-01T17:19:34.000Z,100677
2019-06-01T17:20:49.000Z,100680
2019-06-01T17:21:49.000Z,100677
2019-06-01T17:23:19.000Z,100677
2019-06-01T17:25:49.000Z,100678
2019-06-01T17:26:49.000Z,100676
2019-06-01T17:28:49.000Z,100677
2019-06-01T17:30:34.000Z,100670
2019-06-01T17:31:49.000Z,100678
2019-06-01T17:33:49.000Z,100673
2019-06-01T17:34:49.000Z,100674
2019-06-01T17:36:33.000Z,100673
2019-06-01T17:37:49.000Z,100676
2019-06-01T17:39:49.000Z,100670
2019-06-01T17:41:49.000Z,100672
2019-06-01T17:42:49.000Z,100672
2019-06-01T17:44:49.000Z,100671
2019-06-01T17:45:49.000Z,100670
2019-06-01T17:47:49.000Z,100668
2019-06-01T17:49:49.000Z,100668
2019-06-01T17:50:49.000Z,100664
2019-06-01T17:52:49.000Z,100668
2019-06-01T17:53:49.000Z,100667
2019-06-01T17:55:49.000Z,100668
2019-06-01T17:56:49.000Z,100667
2019-06-01T17:58:49.000Z,100667
2019-06-01T18:00:49.000Z,100666
2019-06-01T18:02:49.000Z,100659
2019-06-01T18:04:49.000Z,100667
2019-06-01T18:05:49.000Z,100666
2019-06-01T18:07:49.000Z,100659
2019-06-01T18:08:49.000Z,100656
2019-06-01T18:10:49.000Z,100658
2019-06-01T18:12:49.000Z,100663
2019-06-01T18:13:49.000Z,100662
2019-06-01T18:14:49.000Z,100657
2019-06-01T18:16:49.000Z,100656
2019-06-01T18:17:49.000Z,100659
2019-06-01T18:19:49.000Z,100657
2019-06-01T18:20:49.000Z,100656
2019-06-01T18:22:04.000Z,100651
2019-06-01T18:23:48.000Z,100658
2019-06-01T18:24:48.000Z,100656
2019-06-01T18:26:49.000Z,100651
2019-06-01T18:27:49.000Z,100654
2019-06-01T18:29:34.000Z,100645
2019-06-01T18:31:49.000Z,100644
2019-06-01T18:32:49.000Z,100640
2019-06-01T18:34:49.000Z,100644
2019-06-01T18:36:34.000Z,100643
2019-06-01T18:37:49.000Z,100643
2019-06-01T18:39:49.000Z,100644
2019-06-01T18:41:19.000Z,100651
2019-06-01T18:42:49.000Z,100648
2019-06-01T18:43:49.000Z,100652
2019-06-01T18:44:49.000Z,100650
2019-06-01T18:46:49.000Z,100645
2019-06-01T18:48:49.000Z,100649
2019-06-01T18:50:34.000Z,100648
2019-06-01T18:51:49.000Z,100646
2019-06-01T18:53:49.000Z,100643
2019-06-01T18:54:49.000Z,100646
2019-06-01T18:56:49.000Z,100643
2019-06-01T18:58:34.000Z,100638
2019-06-01T19:00:34.000Z,100640
2019-06-01T19:02:49.000Z,100648
2019-06-01T19:03:49.000Z,100645
2019-06-01T19:05:34.000Z,100642
2019-06-01T19:06:49.000Z,100647
2019-06-01T19:08:34.000Z,100645
2019-06-01T19:10:49.000Z,100644
2019-06-01T19:12:49.000Z,100646
2019-06-01T19:13:49.000Z,100641
2019-06-01T19:15:19.000Z,100644
2019-06-01T19:16:49.000Z,100643
2019-06-01T19:17:49.000Z,100648
2019-06-01T19:18:49.000Z,100647
2019-06-01T19:20:49.000Z,100643
2019-06-01T19:22:49.000Z,100639
2019-06-01T19:24:49.000Z,100647
2019-06-01T19:25:49.000Z,100647
2019-06-01T19:26:49.000Z,100639
2019-06-01T19:27:49.000Z,100641
2019-06-01T19:29:34.000Z,100642
2019-06-01T19:30:49.000Z,100646
2019-06-01T19:31:49.000Z,100640
2019-06-01T19:33:34.000Z,100644
2019-06-01T19:34:49.000Z,100640
2019-06-01T19:36:49.000Z,100646
2019-06-01T19:38:34.000Z,100639
2019-06-01T19:39:49.000Z,100642
2019-06-01T19:41:34.000Z,100642
2019-06-01T19:43:49.000Z,100645
2019-06-01T19:45:19.000Z,100649
2019-06-01T19:46:49.000Z,100648
2019-06-01T19:47:49.000Z,100649
2019-06-01T19:48:49.000Z,100651
2019-06-01T19:50:49.000Z,100648
2019-06-01T19:52:49.000Z,100647
2019-06-01T19:53:49.000Z,100641
2019-06-01T19:55:34.000Z,100647
2019-06-01T19:57:22.000Z,100643
2019-06-01T19:59:49.000Z,100647
2019-06-01T20:00:49.000Z,100649
2019-06-01T20:02:19.000Z,100647
2019-06-01T20:04:49.000Z,100642
2019-06-01T20:05:49.000Z,100647
2019-06-01T20:06:49.000Z,100648
2019-06-01T20:08:49.000Z,100649
2019-06-01T20:10:49.000Z,100654
2019-06-01T20:12:19.000Z,100650
2019-06-01T20:13:49.000Z,100652
2019-06-01T20:14:49.000Z,100654
2019-06-01T20:16:19.000Z,100645
2019-06-01T20:17:24.000Z,100651
2019-06-01T20:18:49.000Z,100652
2019-06-01T20:20:49.000Z,100650
2019-06-01T20:22:49.000Z,100654
2019-06-01T20:23:49.000Z,100650